createdAt,value
2023-03-19T00:00:37.196Z,3.00
2023-03-19T00:03:05.633Z,2.93
2023-03-19T00:05:33.985Z,3.20
2023-03-19T00:08:02.287Z,3.20
2023-03-19T00:10:30.453Z,2.53
2023-03-19T00:12:58.585Z,3.10
2023-03-19T00:15:26.701Z,3.20
2023-03-19T00:17:56.631Z,3.40
2023-03-19T00:20:24.801Z,3.03
2023-03-19T00:22:52.871Z,2.47
2023-03-19T00:25:21.063Z,2.70
2023-03-19T00:27:49.245Z,3.00
2023-03-19T00:30:17.708Z,2.13
2023-03-19T00:32:45.958Z,3.07
2023-03-19T00:35:15.834Z,3.27
2023-03-19T00:37:43.948Z,3.87
2023-03-19T00:40:13.188Z,3.23
2023-03-19T00:42:41.875Z,2.90
2023-03-19T00:45:11.418Z,2.73
2023-03-19T00:47:39.746Z,2.57
2023-03-19T00:50:08.515Z,2.90
2023-03-19T00:52:38.023Z,3.50
2023-03-19T00:55:06.888Z,2.90
2023-03-19T00:57:34.978Z,3.10
2023-03-19T01:00:03.891Z,2.87
2023-03-19T01:02:32.503Z,3.13
2023-03-19T01:05:00.772Z,2.73
2023-03-19T01:07:28.928Z,2.60
2023-03-19T01:09:59.062Z,2.50
2023-03-19T01:12:27.371Z,2.60
2023-03-19T01:14:55.637Z,3.13
2023-03-19T01:17:23.741Z,3.10
2023-03-19T01:19:52.306Z,2.17
2023-03-19T01:22:20.488Z,2.17
2023-03-19T01:24:54.485Z,2.40
2023-03-19T01:27:24.272Z,2.77
2023-03-19T01:29:52.596Z,2.20
2023-03-19T01:32:46.427Z,2.47
2023-03-19T01:35:32.245Z,2.77
2023-03-19T01:38:00.398Z,2.53
2023-03-19T01:40:30.216Z,2.10
2023-03-19T01:43:14.596Z,2.00
2023-03-19T01:46:02.382Z,1.87
2023-03-19T01:48:53.897Z,1.97
2023-03-19T01:51:27.079Z,2.10
2023-03-19T01:54:22.566Z,2.67
2023-03-19T01:57:03.317Z,2.97
2023-03-19T01:59:55.736Z,2.03
2023-03-19T02:02:43.919Z,2.30
2023-03-19T02:05:25.659Z,2.10
2023-03-19T02:07:59.380Z,1.93
2023-03-19T02:10:29.736Z,2.07
2023-03-19T02:12:58.100Z,2.13
2023-03-19T02:15:28.112Z,2.33
2023-03-19T02:17:56.464Z,2.63
2023-03-19T02:20:31.809Z,1.93
2023-03-19T02:23:10.381Z,2.20
2023-03-19T02:25:47.105Z,1.73
2023-03-19T02:28:20.243Z,1.70
2023-03-19T02:30:50.598Z,1.60
2023-03-19T02:33:20.476Z,2.60
2023-03-19T02:35:52.370Z,1.90
2023-03-19T02:38:22.285Z,2.20
2023-03-19T02:40:53.742Z,1.30
2023-03-19T02:43:24.829Z,1.83
2023-03-19T02:45:53.391Z,1.83
2023-03-19T02:48:21.530Z,2.20
2023-03-19T02:50:49.674Z,1.83
2023-03-19T02:53:18.076Z,1.73
2023-03-19T02:55:46.425Z,1.90
2023-03-19T02:58:14.664Z,1.57
2023-03-19T03:00:45.158Z,1.70
2023-03-19T03:03:13.924Z,1.67
2023-03-19T03:05:42.058Z,1.70
2023-03-19T03:08:10.706Z,1.80
2023-03-19T03:10:38.831Z,1.70
2023-03-19T03:13:07.181Z,2.10
2023-03-19T03:15:36.005Z,2.13
2023-03-19T03:18:06.174Z,1.73
2023-03-19T03:20:34.708Z,1.77
2023-03-19T03:23:02.935Z,1.83
2023-03-19T03:25:31.332Z,2.53
2023-03-19T03:27:59.847Z,2.13
2023-03-19T03:30:27.980Z,2.20
2023-03-19T03:32:56.599Z,2.63
2023-03-19T03:35:27.310Z,3.67
2023-03-19T03:37:57.926Z,2.43
2023-03-19T03:40:27.409Z,2.43
2023-03-19T03:42:55.635Z,2.67
2023-03-19T03:45:24.093Z,2.27
2023-03-19T03:47:53.535Z,2.20
2023-03-19T03:50:21.705Z,2.63
2023-03-19T03:52:54.526Z,2.57
2023-03-19T03:55:22.697Z,3.20
2023-03-19T03:57:51.001Z,2.37
2023-03-19T04:00:19.926Z,2.80
2023-03-19T04:02:48.117Z,3.70
2023-03-19T04:05:17.536Z,2.37
2023-03-19T04:07:45.793Z,2.70
2023-03-19T04:10:16.421Z,2.40
2023-03-19T04:12:45.922Z,2.27
2023-03-19T04:15:14.445Z,2.10
2023-03-19T04:17:45.684Z,2.60
2023-03-19T04:20:16.239Z,2.30
2023-03-19T04:22:44.329Z,2.20
2023-03-19T04:25:12.820Z,2.40
2023-03-19T04:27:42.773Z,2.43
2023-03-19T04:30:12.407Z,2.53
2023-03-19T04:32:40.766Z,2.30
2023-03-19T04:35:09.884Z,2.73
2023-03-19T04:37:38.141Z,2.23
2023-03-19T04:40:07.691Z,3.00
2023-03-19T04:42:38.194Z,2.83
2023-03-19T04:45:13.585Z,2.73
2023-03-19T04:47:43.246Z,2.27
2023-03-19T04:50:12.792Z,2.30
2023-03-19T04:52:42.648Z,2.67
2023-03-19T04:55:13.108Z,2.47
2023-03-19T04:57:51.940Z,2.47
2023-03-19T05:00:23.790Z,2.87
2023-03-19T05:02:51.992Z,3.57
2023-03-19T05:05:20.266Z,4.37
2023-03-19T05:07:48.687Z,4.20
2023-03-19T05:10:17.540Z,5.40
2023-03-19T05:12:46.083Z,3.87
2023-03-19T05:15:16.116Z,3.43
2023-03-19T05:18:08.739Z,4.47
2023-03-19T05:20:42.580Z,3.10
2023-03-19T05:23:19.315Z,2.23
2023-03-19T05:25:57.383Z,2.07
2023-03-19T05:28:45.537Z,2.23
2023-03-19T05:31:15.312Z,2.07
2023-03-19T05:33:50.043Z,1.93
2023-03-19T05:36:19.134Z,1.70
2023-03-19T05:39:13.213Z,2.20
2023-03-19T05:41:43.739Z,2.40
2023-03-19T05:44:13.852Z,2.10
2023-03-19T05:47:05.301Z,1.90
2023-03-19T05:49:37.849Z,1.80
2023-03-19T05:52:06.244Z,1.80
2023-03-19T05:54:35.114Z,2.33
2023-03-19T05:57:09.040Z,2.00
2023-03-19T05:59:52.691Z,1.93
2023-03-19T06:02:41.055Z,2.37
2023-03-19T06:05:28.285Z,2.77
2023-03-19T06:08:01.302Z,1.93
2023-03-19T06:10:45.528Z,2.20
2023-03-19T06:13:14.774Z,1.50
2023-03-19T06:15:54.573Z,1.90
2023-03-19T06:18:26.950Z,1.77
2023-03-19T06:20:56.446Z,1.70
2023-03-19T06:23:24.668Z,2.00
2023-03-19T06:25:53.362Z,1.80
2023-03-19T06:28:23.995Z,2.17
2023-03-19T06:30:52.166Z,1.70
2023-03-19T06:33:38.588Z,2.37
2023-03-19T06:36:09.085Z,2.13
2023-03-19T06:38:37.842Z,2.03
2023-03-19T06:41:06.186Z,1.97
2023-03-19T06:43:36.905Z,2.20
2023-03-19T06:46:08.290Z,2.80
2023-03-19T06:48:38.358Z,4.03
2023-03-19T06:51:08.506Z,2.67
2023-03-19T06:53:36.977Z,2.17
2023-03-19T06:56:05.817Z,2.03
2023-03-19T06:58:35.372Z,2.13
2023-03-19T07:01:03.778Z,2.30
2023-03-19T07:03:32.263Z,2.50
2023-03-19T07:06:00.325Z,2.50
2023-03-19T07:08:30.248Z,2.40
2023-03-19T07:10:58.356Z,2.47
2023-03-19T07:13:26.454Z,2.30
2023-03-19T07:15:54.551Z,2.50
2023-03-19T07:18:22.604Z,2.30
2023-03-19T07:20:50.773Z,2.00
2023-03-19T07:23:18.929Z,2.23
2023-03-19T07:25:48.328Z,2.23
2023-03-19T07:28:16.809Z,2.10
2023-03-19T07:30:45.025Z,2.83
2023-03-19T07:33:13.260Z,2.47
2023-03-19T07:35:41.485Z,2.97
2023-03-19T07:38:09.559Z,2.33
2023-03-19T07:40:40.055Z,2.50
2023-03-19T07:43:12.825Z,2.70
2023-03-19T07:45:40.981Z,3.00
2023-03-19T07:48:09.101Z,2.40
2023-03-19T07:50:37.387Z,2.60
2023-03-19T07:53:05.579Z,1.87
2023-03-19T07:55:33.669Z,2.33
2023-03-19T07:58:01.744Z,3.07
2023-03-19T08:00:31.318Z,2.80
2023-03-19T08:02:59.628Z,2.70
2023-03-19T08:05:27.792Z,2.30
2023-03-19T08:07:56.081Z,2.40
2023-03-19T08:10:24.234Z,2.70
2023-03-19T08:12:52.363Z,2.50
2023-03-19T08:15:20.571Z,2.67
2023-03-19T08:17:50.057Z,2.53
2023-03-19T08:20:18.324Z,2.97
2023-03-19T08:22:50.933Z,2.17
2023-03-19T08:25:19.455Z,3.03
2023-03-19T08:27:47.654Z,2.87
2023-03-19T08:30:16.841Z,2.87
2023-03-19T08:32:45.889Z,2.40
2023-03-19T08:35:16.210Z,2.20
2023-03-19T08:37:44.411Z,2.30
2023-03-19T08:40:13.587Z,2.77
2023-03-19T08:42:45.081Z,2.73
2023-03-19T08:45:15.441Z,2.63
2023-03-19T08:47:44.580Z,2.33
2023-03-19T08:50:13.396Z,2.50
2023-03-19T08:52:43.072Z,2.47
2023-03-19T08:55:11.920Z,2.30
2023-03-19T08:57:39.979Z,2.37
2023-03-19T09:00:09.599Z,2.60
2023-03-19T09:02:37.717Z,2.70
2023-03-19T09:05:07.346Z,2.23
2023-03-19T09:07:35.540Z,2.40
2023-03-19T09:10:05.650Z,2.60
2023-03-19T09:12:34.017Z,2.27
2023-03-19T09:15:02.149Z,2.67
2023-03-19T09:17:30.276Z,2.60
2023-03-19T09:19:58.852Z,2.43
2023-03-19T09:22:27.036Z,2.80
2023-03-19T09:24:55.401Z,2.30
2023-03-19T09:27:25.124Z,2.60
2023-03-19T09:29:53.236Z,2.40
2023-03-19T09:32:21.706Z,2.30
2023-03-19T09:34:49.791Z,2.00
2023-03-19T09:37:17.950Z,2.43
2023-03-19T09:39:46.676Z,2.40
2023-03-19T09:42:27.585Z,2.63
2023-03-19T09:44:55.863Z,2.50
2023-03-19T09:47:29.673Z,2.50
2023-03-19T09:49:59.395Z,2.50
2023-03-19T09:52:36.397Z,2.40
2023-03-19T09:55:12.386Z,2.63
2023-03-19T09:57:41.836Z,2.20
2023-03-19T10:00:22.333Z,2.13
2023-03-19T10:02:55.514Z,2.20
2023-03-19T10:05:37.131Z,1.80
2023-03-19T10:08:33.801Z,1.53
2023-03-19T10:11:25.815Z,1.77
2023-03-19T10:14:03.769Z,1.83
2023-03-19T10:16:32.570Z,2.00
2023-03-19T10:19:04.245Z,1.90
2023-03-19T10:21:39.807Z,2.10
2023-03-19T10:24:12.530Z,3.90
2023-03-19T10:26:40.724Z,2.20
2023-03-19T10:29:12.003Z,2.40
2023-03-19T10:31:48.439Z,2.27
2023-03-19T10:34:31.198Z,2.47
2023-03-19T10:37:01.445Z,2.13
2023-03-19T10:39:30.947Z,2.67
2023-03-19T10:42:08.929Z,1.70
2023-03-19T10:44:43.424Z,2.60
2023-03-19T10:47:13.150Z,1.83
2023-03-19T10:49:42.702Z,1.67
2023-03-19T10:52:21.120Z,1.30
2023-03-19T10:54:55.491Z,2.30
2023-03-19T10:57:27.574Z,1.50
2023-03-19T10:59:57.209Z,1.70
2023-03-19T11:02:31.228Z,1.87
2023-03-19T11:05:24.451Z,2.03
2023-03-19T11:07:56.076Z,1.93
2023-03-19T11:10:27.058Z,1.40
2023-03-19T11:12:58.786Z,1.67
2023-03-19T11:15:34.059Z,2.07
2023-03-19T11:18:07.412Z,2.60
2023-03-19T11:20:37.216Z,2.53
2023-03-19T11:23:13.315Z,2.03
2023-03-19T11:25:43.185Z,2.10
2023-03-19T11:28:15.110Z,2.03
2023-03-19T11:30:54.438Z,1.90
2023-03-19T11:33:57.301Z,1.97
2023-03-19T11:36:32.040Z,3.43
2023-03-19T11:39:13.305Z,2.40
2023-03-19T11:41:55.021Z,2.03
2023-03-19T11:44:30.254Z,2.07
2023-03-19T11:47:14.965Z,1.73
2023-03-19T11:50:04.829Z,1.90
2023-03-19T11:52:39.181Z,1.60
2023-03-19T11:55:21.318Z,1.50
2023-03-19T11:58:09.408Z,2.23
2023-03-19T12:00:43.803Z,1.50
2023-03-19T12:03:40.498Z,1.70
2023-03-19T12:06:16.814Z,1.30
2023-03-19T12:08:51.288Z,1.53
2023-03-19T12:11:25.340Z,1.33
2023-03-19T12:14:11.158Z,1.50
2023-03-19T12:17:07.378Z,1.67
2023-03-19T12:19:50.593Z,1.20
2023-03-19T12:22:31.829Z,1.30
2023-03-19T12:25:22.513Z,1.30
2023-03-19T12:27:56.478Z,1.60
2023-03-19T12:30:33.978Z,1.50
2023-03-19T12:33:17.055Z,1.20
2023-03-19T12:35:50.136Z,1.70
2023-03-19T12:38:24.182Z,1.07
2023-03-19T12:40:56.519Z,1.10
2023-03-19T12:43:29.649Z,1.67
2023-03-19T12:46:02.235Z,1.80
2023-03-19T12:48:36.779Z,1.43
2023-03-19T12:51:10.596Z,1.37
2023-03-19T12:53:46.752Z,1.30
2023-03-19T12:56:21.096Z,1.40
2023-03-19T12:58:59.497Z,1.03
2023-03-19T13:01:31.883Z,1.00
2023-03-19T13:04:07.369Z,1.10
2023-03-19T13:06:38.958Z,1.20
2023-03-19T13:09:14.359Z,0.90
2023-03-19T13:11:49.359Z,0.80
2023-03-19T13:14:22.987Z,0.90
2023-03-19T13:16:58.767Z,0.97
2023-03-19T13:19:33.263Z,0.87
2023-03-19T13:22:07.521Z,0.97
2023-03-19T13:24:38.457Z,0.80
2023-03-19T13:27:12.118Z,0.97
2023-03-19T13:30:07.340Z,0.93
2023-03-19T13:32:42.406Z,2.37
2023-03-19T13:35:26.114Z,2.50
2023-03-19T13:38:01.340Z,2.10
2023-03-19T13:40:42.274Z,1.60
2023-03-19T13:43:43.092Z,2.43
2023-03-19T13:46:38.439Z,2.70
2023-03-19T13:49:29.674Z,3.30
2023-03-19T13:52:02.622Z,1.90
2023-03-19T13:54:38.278Z,2.30
2023-03-19T13:57:22.562Z,2.20
2023-03-19T13:59:51.865Z,1.97
2023-03-19T14:02:49.031Z,1.27
2023-03-19T14:05:22.811Z,1.17
2023-03-19T14:07:55.878Z,1.30
2023-03-19T14:10:28.151Z,1.10
2023-03-19T14:13:06.210Z,1.30
2023-03-19T14:15:34.833Z,1.23
2023-03-19T14:18:06.091Z,2.00
2023-03-19T14:20:40.721Z,1.40
2023-03-19T14:23:23.631Z,2.20
2023-03-19T14:26:03.168Z,2.70
2023-03-19T14:28:38.345Z,2.40
2023-03-19T14:31:15.844Z,2.17
2023-03-19T14:33:48.448Z,2.43
2023-03-19T14:36:19.891Z,2.10
2023-03-19T14:38:52.332Z,2.87
2023-03-19T14:41:23.769Z,1.93
2023-03-19T14:44:12.887Z,1.57
2023-03-19T14:46:54.657Z,1.23
2023-03-19T14:49:51.864Z,1.10
2023-03-19T14:52:23.407Z,1.07
2023-03-19T14:54:57.020Z,0.70
2023-03-19T14:57:29.693Z,1.70
2023-03-19T14:59:57.920Z,0.87
2023-03-19T15:02:35.701Z,1.27
2023-03-19T15:05:08.327Z,0.80
2023-03-19T15:07:39.615Z,1.20
2023-03-19T15:10:14.988Z,1.00
2023-03-19T15:13:16.384Z,0.70
2023-03-19T15:16:08.063Z,0.73
2023-03-19T15:18:37.247Z,0.97
2023-03-19T15:21:06.500Z,1.20
2023-03-19T15:23:36.048Z,1.40
2023-03-19T15:26:08.687Z,0.90
2023-03-19T15:28:49.531Z,1.10
2023-03-19T15:31:32.007Z,0.83
2023-03-19T15:34:19.239Z,1.50
2023-03-19T15:36:48.377Z,1.33
2023-03-19T15:39:18.698Z,1.30
2023-03-19T15:41:50.353Z,1.10
2023-03-19T15:44:23.395Z,1.43
2023-03-19T15:46:52.605Z,1.90
2023-03-19T15:49:25.568Z,1.20
2023-03-19T15:51:58.089Z,1.10
2023-03-19T15:54:27.350Z,0.90
2023-03-19T15:56:56.993Z,1.10
2023-03-19T15:59:31.590Z,1.40
2023-03-19T16:02:02.040Z,1.30
2023-03-19T16:04:38.426Z,0.87
2023-03-19T16:07:26.165Z,0.60
2023-03-19T16:09:54.627Z,0.70
2023-03-19T16:12:38.338Z,0.90
2023-03-19T16:15:29.414Z,1.97
2023-03-19T16:18:10.011Z,2.50
2023-03-19T16:20:45.435Z,2.00
2023-03-19T16:23:18.453Z,1.70
2023-03-19T16:25:47.966Z,1.00
2023-03-19T16:28:18.926Z,1.00
2023-03-19T16:30:49.416Z,1.00
2023-03-19T16:33:19.861Z,0.90
2023-03-19T16:35:48.419Z,0.80
2023-03-19T16:38:19.110Z,0.80
2023-03-19T16:40:48.325Z,0.77
2023-03-19T16:43:21.763Z,0.57
2023-03-19T16:46:08.397Z,0.70
2023-03-19T16:48:36.459Z,1.00
2023-03-19T16:51:05.412Z,0.83
2023-03-19T16:53:33.644Z,1.03
2023-03-19T16:56:03.356Z,0.70
2023-03-19T16:58:34.962Z,0.77
2023-03-19T17:01:03.737Z,2.40
2023-03-19T17:03:33.236Z,2.60
2023-03-19T17:06:03.268Z,1.20
2023-03-19T17:08:33.043Z,1.10
2023-03-19T17:11:01.157Z,2.50
2023-03-19T17:13:32.379Z,7.53
2023-03-19T17:16:03.185Z,8.90
2023-03-19T17:18:35.016Z,7.60
2023-03-19T17:21:06.318Z,5.27
2023-03-19T17:23:34.890Z,3.70
2023-03-19T17:26:04.801Z,4.77
2023-03-19T17:28:33.172Z,6.50
2023-03-19T17:31:01.460Z,4.70
2023-03-19T17:33:32.429Z,13.10
2023-03-19T17:36:00.692Z,8.57
2023-03-19T17:38:33.868Z,4.60
2023-03-19T17:41:02.110Z,2.60
2023-03-19T17:43:30.273Z,2.33
2023-03-19T17:45:58.525Z,2.60
2023-03-19T17:48:28.093Z,3.30
2023-03-19T17:51:01.666Z,4.47
2023-03-19T17:53:30.219Z,4.27
2023-03-19T17:55:58.329Z,4.23
2023-03-19T17:58:26.537Z,2.50
2023-03-19T18:00:54.766Z,1.60
2023-03-19T18:03:26.043Z,0.80
2023-03-19T18:05:54.270Z,0.57
2023-03-19T18:08:24.677Z,0.80
2023-03-19T18:10:52.988Z,0.80
2023-03-19T18:13:21.360Z,0.90
2023-03-19T18:15:49.542Z,1.20
2023-03-19T18:18:20.382Z,0.90
2023-03-19T18:20:49.136Z,1.10
2023-03-19T18:23:17.740Z,0.63
2023-03-19T18:25:47.996Z,0.97
2023-03-19T18:28:16.152Z,0.70
2023-03-19T18:30:46.206Z,0.60
2023-03-19T18:33:19.729Z,0.80
2023-03-19T18:35:48.280Z,0.80
2023-03-19T18:38:19.278Z,0.80
2023-03-19T18:40:49.831Z,1.63
2023-03-19T18:43:18.130Z,1.60
2023-03-19T18:45:49.509Z,4.40
2023-03-19T18:48:21.882Z,2.40
2023-03-19T18:50:50.327Z,2.20
2023-03-19T18:53:18.818Z,16.87
2023-03-19T18:55:49.157Z,9.17
2023-03-19T18:58:21.124Z,3.23
2023-03-19T19:00:50.028Z,1.90
2023-03-19T19:03:20.635Z,2.20
2023-03-19T19:05:49.720Z,2.07
2023-03-19T19:08:20.309Z,2.40
2023-03-19T19:10:52.649Z,2.90
2023-03-19T19:13:23.954Z,2.43
2023-03-19T19:15:55.105Z,2.43
2023-03-19T19:18:25.906Z,1.70
2023-03-19T19:20:55.998Z,1.63
2023-03-19T19:23:27.012Z,3.20
2023-03-19T19:25:56.934Z,4.30
2023-03-19T19:28:27.983Z,3.80
2023-03-19T19:30:57.531Z,3.10
2023-03-19T19:33:27.738Z,3.30
2023-03-19T19:35:56.993Z,2.30
2023-03-19T19:38:25.510Z,2.20
2023-03-19T19:40:58.218Z,3.37
2023-03-19T19:43:30.699Z,5.37
2023-03-19T19:45:59.778Z,6.83
2023-03-19T19:48:30.485Z,5.63
2023-03-19T19:50:59.367Z,3.43
2023-03-19T19:53:29.649Z,3.40
2023-03-19T19:55:59.400Z,4.50
2023-03-19T19:58:31.080Z,5.93
2023-03-19T20:01:04.267Z,6.10
2023-03-19T20:03:34.870Z,5.10
2023-03-19T20:06:03.311Z,5.33
2023-03-19T20:08:31.599Z,5.20
2023-03-19T20:11:02.254Z,4.20
2023-03-19T20:13:34.075Z,2.73
2023-03-19T20:16:03.873Z,2.20
2023-03-19T20:18:35.630Z,1.50
2023-03-19T20:21:04.203Z,1.70
2023-03-19T20:23:32.754Z,1.60
2023-03-19T20:26:02.863Z,1.17
2023-03-19T20:28:35.523Z,1.20
2023-03-19T20:31:05.350Z,0.90
2023-03-19T20:33:34.473Z,1.10
2023-03-19T20:36:03.268Z,1.20
2023-03-19T20:38:31.476Z,1.30
2023-03-19T20:41:01.056Z,1.27
2023-03-19T20:43:31.581Z,1.20
2023-03-19T20:46:04.292Z,0.70
2023-03-19T20:48:33.923Z,0.80
2023-03-19T20:51:02.994Z,1.40
2023-03-19T20:53:31.544Z,1.10
2023-03-19T20:56:03.363Z,1.00
2023-03-19T20:58:35.001Z,1.10
2023-03-19T21:01:03.773Z,1.00
2023-03-19T21:03:33.224Z,1.23
2023-03-19T21:06:03.778Z,1.37
2023-03-19T21:08:34.467Z,1.77
2023-03-19T21:11:04.736Z,2.23
2023-03-19T21:13:33.045Z,3.40
2023-03-19T21:16:02.010Z,3.83
2023-03-19T21:18:30.301Z,4.23
2023-03-19T21:20:59.760Z,4.00
2023-03-19T21:23:31.788Z,3.67
2023-03-19T21:26:01.432Z,4.10
2023-03-19T21:28:35.588Z,3.53
2023-03-19T21:31:04.207Z,3.73
2023-03-19T21:33:33.845Z,2.87
2023-03-19T21:36:03.407Z,2.53
2023-03-19T21:38:33.116Z,2.60
2023-03-19T21:41:04.363Z,2.57
2023-03-19T21:43:37.185Z,2.00
2023-03-19T21:46:23.821Z,1.93
2023-03-19T21:48:53.676Z,1.70
2023-03-19T21:51:22.555Z,1.70
2023-03-19T21:53:50.797Z,1.40
2023-03-19T21:56:23.179Z,1.80
2023-03-19T21:58:54.104Z,2.00
2023-03-19T22:01:24.826Z,1.70
2023-03-19T22:03:54.068Z,1.60
2023-03-19T22:06:24.255Z,1.13
2023-03-19T22:08:54.070Z,3.23
2023-03-19T22:11:26.548Z,25.53
2023-03-19T22:14:01.994Z,10.97
2023-03-19T22:16:30.193Z,4.50
2023-03-19T22:18:58.759Z,3.40
2023-03-19T22:21:27.012Z,1.50
2023-03-19T22:23:55.258Z,1.60
2023-03-19T22:26:31.008Z,1.90
2023-03-19T22:29:03.125Z,2.00
2023-03-19T22:31:32.121Z,1.60
2023-03-19T22:34:00.563Z,7.57
2023-03-19T22:36:29.082Z,10.80
2023-03-19T22:38:57.735Z,8.70
2023-03-19T22:41:30.174Z,7.20
2023-03-19T22:44:01.305Z,2.87
2023-03-19T22:46:29.853Z,1.60
2023-03-19T22:48:58.154Z,1.17
2023-03-19T22:51:28.423Z,0.73
2023-03-19T22:53:56.674Z,1.00
2023-03-19T22:56:24.845Z,1.37
2023-03-19T22:58:53.985Z,1.00
2023-03-19T23:01:35.755Z,1.40
2023-03-19T23:04:21.770Z,0.83
2023-03-19T23:06:50.525Z,0.90
2023-03-19T23:09:21.306Z,1.30
2023-03-19T23:11:49.606Z,0.80
2023-03-19T23:14:29.036Z,1.30
2023-03-19T23:17:03.309Z,1.40
2023-03-19T23:19:33.159Z,1.60
2023-03-19T23:22:02.814Z,1.30
2023-03-19T23:24:31.655Z,1.60
2023-03-19T23:27:01.505Z,1.50
2023-03-19T23:29:34.005Z,1.63
2023-03-19T23:32:04.500Z,2.03
2023-03-19T23:34:39.832Z,1.70
2023-03-19T23:37:14.817Z,1.50
2023-03-19T23:39:43.146Z,1.60
2023-03-19T23:42:22.988Z,1.10
2023-03-19T23:44:51.731Z,1.30
2023-03-19T23:47:21.528Z,2.20
2023-03-19T23:49:49.776Z,1.37
2023-03-19T23:52:17.994Z,1.40
2023-03-19T23:54:46.733Z,1.43
2023-03-19T23:57:16.672Z,1.90
2023-03-19T23:59:48.074Z,1.50
